createdAt,value
2023-02-17T00:02:35.345Z,29.03
2023-02-17T00:05:40.250Z,29.10
2023-02-17T00:08:43.105Z,28.50
2023-02-17T00:11:47.091Z,32.27
2023-02-17T00:14:49.699Z,28.60
2023-02-17T00:17:52.268Z,29.40
2023-02-17T00:20:54.855Z,25.30
2023-02-17T00:23:58.500Z,27.53
2023-02-17T00:27:02.413Z,25.60
2023-02-17T00:30:05.785Z,24.37
2023-02-17T00:33:08.417Z,24.57
2023-02-17T00:36:13.940Z,24.10
2023-02-17T00:39:17.896Z,23.47
2023-02-17T00:42:21.836Z,22.63
2023-02-17T00:45:24.423Z,22.87
2023-02-17T00:48:27.131Z,23.67
2023-02-17T00:51:29.732Z,23.27
2023-02-17T00:54:32.411Z,22.50
2023-02-17T00:57:36.400Z,21.80
2023-02-17T01:00:39.017Z,21.77
2023-02-17T01:03:42.077Z,20.87
2023-02-17T01:06:44.746Z,23.27
2023-02-17T01:09:47.313Z,23.87
2023-02-17T01:12:51.330Z,22.03
2023-02-17T01:15:54.672Z,21.43
2023-02-17T01:18:57.436Z,23.33
2023-02-17T01:22:00.053Z,23.93
2023-02-17T01:25:02.868Z,22.57
2023-02-17T01:28:08.012Z,23.50
2023-02-17T01:31:11.694Z,23.67
2023-02-17T01:34:14.485Z,23.10
2023-02-17T01:37:17.183Z,23.07
2023-02-17T01:40:19.849Z,25.27
2023-02-17T01:43:23.800Z,25.90
2023-02-17T01:46:26.434Z,25.47
2023-02-17T01:49:33.816Z,25.00
2023-02-17T01:52:36.660Z,29.07
2023-02-17T01:55:40.782Z,25.90
2023-02-17T01:58:52.787Z,29.70
2023-02-17T02:01:59.715Z,26.77
2023-02-17T02:05:02.887Z,25.60
2023-02-17T02:08:09.689Z,28.87
2023-02-17T02:11:12.326Z,29.83
2023-02-17T02:14:16.684Z,27.77
2023-02-17T02:17:32.652Z,27.77
2023-02-17T02:20:51.284Z,28.87
2023-02-17T02:24:21.930Z,26.53
2023-02-17T02:27:40.863Z,28.57
2023-02-17T02:30:59.734Z,25.10
2023-02-17T02:34:07.608Z,24.73
2023-02-17T02:37:15.281Z,24.77
2023-02-17T02:40:20.943Z,23.87
2023-02-17T02:43:25.073Z,23.67
2023-02-17T02:46:27.662Z,23.57
2023-02-17T02:49:34.829Z,22.77
2023-02-17T02:52:48.997Z,24.53
2023-02-17T02:55:55.507Z,22.13
2023-02-17T02:59:10.805Z,24.03
2023-02-17T03:02:22.430Z,20.87
2023-02-17T03:05:39.175Z,24.87
2023-02-17T03:08:46.684Z,21.27
2023-02-17T03:11:50.119Z,22.47
2023-02-17T03:14:56.825Z,22.43
2023-02-17T03:17:59.997Z,21.30
2023-02-17T03:21:10.726Z,18.60
2023-02-17T03:24:13.349Z,18.40
2023-02-17T03:27:16.270Z,18.53
2023-02-17T03:30:19.044Z,20.90
2023-02-17T03:33:21.698Z,19.83
2023-02-17T03:36:25.611Z,18.43
2023-02-17T03:39:28.476Z,18.03
2023-02-17T03:42:31.044Z,19.50
2023-02-17T03:45:33.666Z,17.33
2023-02-17T03:48:36.255Z,16.73
2023-02-17T03:51:40.371Z,17.50
2023-02-17T03:54:42.981Z,17.47
2023-02-17T03:57:45.584Z,17.60
2023-02-17T04:00:48.157Z,16.93
2023-02-17T04:03:51.508Z,17.67
2023-02-17T04:06:55.455Z,17.53
2023-02-17T04:09:58.081Z,18.00
2023-02-17T04:13:00.686Z,17.20
2023-02-17T04:16:04.269Z,16.73
2023-02-17T04:19:07.462Z,16.70
2023-02-17T04:22:11.430Z,16.73
2023-02-17T04:25:15.111Z,17.10
2023-02-17T04:28:18.555Z,16.83
2023-02-17T04:31:21.278Z,18.23
2023-02-17T04:34:23.942Z,16.27
2023-02-17T04:37:27.901Z,17.88
2023-02-17T04:40:30.574Z,17.13
2023-02-17T04:43:33.645Z,15.37
2023-02-17T04:46:36.274Z,14.50
2023-02-17T04:49:38.838Z,14.40
2023-02-17T04:52:42.787Z,13.83
2023-02-17T04:55:48.614Z,15.73
2023-02-17T04:58:51.186Z,13.90
2023-02-17T05:01:53.775Z,14.43
2023-02-17T05:04:56.377Z,15.07
2023-02-17T05:08:00.305Z,13.70
2023-02-17T05:11:02.892Z,14.80
2023-02-17T05:14:05.509Z,13.97
2023-02-17T05:17:08.136Z,14.77
2023-02-17T05:20:11.390Z,15.77
2023-02-17T05:23:15.346Z,16.03
2023-02-17T05:26:17.923Z,51.27
2023-02-17T05:29:20.533Z,16.87
2023-02-17T05:32:23.868Z,14.63
2023-02-17T05:35:26.497Z,18.23
2023-02-17T05:38:30.592Z,15.60
2023-02-17T05:41:33.228Z,17.07
2023-02-17T05:44:35.842Z,16.53
2023-02-17T05:47:38.406Z,18.13
2023-02-17T05:50:41.105Z,21.13
2023-02-17T05:53:45.133Z,19.00
2023-02-17T05:56:48.231Z,19.80
2023-02-17T05:59:50.825Z,20.90
2023-02-17T06:02:53.623Z,21.20
2023-02-17T06:05:56.198Z,21.53
2023-02-17T06:09:00.145Z,21.83
2023-02-17T06:12:02.701Z,21.50
2023-02-17T06:15:05.667Z,22.50
2023-02-17T06:18:08.245Z,23.43
2023-02-17T06:21:10.837Z,22.53
2023-02-17T06:24:14.796Z,22.63
2023-02-17T06:27:17.377Z,21.30
2023-02-17T06:30:21.321Z,22.00
2023-02-17T06:33:23.935Z,20.63
2023-02-17T06:36:26.531Z,20.60
2023-02-17T06:39:30.608Z,20.83
2023-02-17T06:42:33.336Z,21.23
2023-02-17T06:45:35.901Z,21.70
2023-02-17T06:48:38.496Z,19.67
2023-02-17T06:51:41.160Z,21.70
2023-02-17T06:54:47.146Z,21.23
2023-02-17T06:57:49.791Z,21.37
2023-02-17T07:00:52.540Z,21.53
2023-02-17T07:03:56.194Z,21.53
2023-02-17T07:06:58.776Z,21.57
2023-02-17T07:10:03.403Z,23.17
2023-02-17T07:13:06.052Z,22.10
2023-02-17T07:16:09.778Z,22.50
2023-02-17T07:19:12.509Z,23.23
2023-02-17T07:22:15.119Z,23.30
2023-02-17T07:25:19.096Z,23.20
2023-02-17T07:28:21.724Z,23.17
2023-02-17T07:31:24.440Z,24.57
2023-02-17T07:34:27.146Z,24.87
2023-02-17T07:37:29.737Z,26.87
2023-02-17T07:40:33.669Z,25.03
2023-02-17T07:43:36.468Z,26.23
2023-02-17T07:46:39.670Z,24.13
2023-02-17T07:49:42.253Z,24.63
2023-02-17T07:52:44.852Z,23.40
2023-02-17T07:55:48.808Z,25.90
2023-02-17T07:58:51.569Z,26.23
2023-02-17T08:01:54.558Z,25.43
2023-02-17T08:04:57.209Z,25.20
2023-02-17T08:08:17.425Z,25.17
2023-02-17T08:11:38.917Z,22.93
2023-02-17T08:14:41.874Z,24.47
2023-02-17T08:17:44.643Z,23.40
2023-02-17T08:20:47.252Z,24.23
2023-02-17T08:23:49.949Z,24.50
2023-02-17T08:26:53.940Z,21.60
2023-02-17T08:29:56.629Z,22.33
2023-02-17T08:32:59.332Z,22.00
2023-02-17T08:36:07.625Z,22.60
2023-02-17T08:39:13.779Z,20.43
2023-02-17T08:42:17.955Z,19.30
2023-02-17T08:45:20.603Z,21.93
2023-02-17T08:48:23.213Z,20.43
2023-02-17T08:51:26.429Z,18.40
2023-02-17T08:54:29.113Z,17.60
2023-02-17T08:57:33.005Z,16.73
2023-02-17T09:00:35.762Z,15.27
2023-02-17T09:03:39.492Z,17.33
2023-02-17T09:06:45.288Z,16.57
2023-02-17T09:09:47.904Z,15.90
2023-02-17T09:12:51.912Z,16.27
2023-02-17T09:15:55.341Z,16.07
2023-02-17T09:18:58.089Z,14.77
2023-02-17T09:22:00.761Z,15.33
2023-02-17T09:25:03.744Z,14.93
2023-02-17T09:28:07.985Z,15.17
2023-02-17T09:31:11.771Z,16.00
2023-02-17T09:34:15.394Z,14.53
2023-02-17T09:37:18.552Z,14.47
2023-02-17T09:40:25.282Z,13.93
2023-02-17T09:43:31.543Z,13.33
2023-02-17T09:46:38.240Z,14.17
2023-02-17T09:49:45.217Z,12.87
2023-02-17T09:52:55.980Z,13.40
2023-02-17T09:56:02.694Z,13.30
2023-02-17T09:59:15.151Z,13.73
2023-02-17T10:02:24.370Z,13.27
2023-02-17T10:05:31.540Z,12.67
2023-02-17T10:08:40.061Z,12.50
2023-02-17T10:11:49.040Z,12.87
2023-02-17T10:14:57.237Z,12.07
2023-02-17T10:18:06.685Z,12.27
2023-02-17T10:21:15.582Z,13.33
2023-02-17T10:24:18.248Z,13.10
2023-02-17T10:27:29.505Z,11.30
2023-02-17T10:30:40.805Z,11.93
2023-02-17T10:33:52.907Z,12.10
2023-02-17T10:37:00.509Z,11.60
2023-02-17T10:40:11.245Z,11.60
2023-02-17T10:43:17.824Z,13.07
2023-02-17T10:46:28.923Z,13.13
2023-02-17T10:49:35.807Z,14.23
2023-02-17T10:52:40.979Z,12.40
2023-02-17T10:55:54.083Z,14.70
2023-02-17T10:59:00.634Z,13.53
2023-02-17T11:02:18.015Z,14.93
2023-02-17T11:05:26.557Z,15.00
2023-02-17T11:08:33.475Z,16.03
2023-02-17T11:11:37.785Z,14.63
2023-02-17T11:14:46.446Z,15.70
2023-02-17T11:17:51.426Z,15.70
2023-02-17T11:21:01.253Z,15.17
2023-02-17T11:24:06.459Z,15.17
2023-02-17T11:27:11.204Z,18.73
2023-02-17T11:30:18.614Z,14.97
2023-02-17T11:33:29.743Z,15.30
2023-02-17T11:36:33.107Z,14.77
2023-02-17T11:39:39.861Z,14.47
2023-02-17T11:42:42.475Z,14.67
2023-02-17T11:45:53.921Z,15.07
2023-02-17T11:49:23.751Z,16.00
2023-02-17T11:52:50.041Z,14.60
2023-02-17T11:56:07.688Z,14.50
2023-02-17T11:59:26.498Z,14.37
2023-02-17T12:02:45.375Z,15.37
2023-02-17T12:06:01.958Z,15.60
2023-02-17T12:09:15.326Z,13.97
2023-02-17T12:12:27.362Z,15.57
2023-02-17T12:15:49.592Z,14.83
2023-02-17T12:19:03.129Z,16.30
2023-02-17T12:22:17.301Z,14.80
2023-02-17T12:25:29.008Z,16.00
2023-02-17T12:28:49.650Z,13.47
2023-02-17T12:32:04.528Z,13.57
2023-02-17T12:35:19.939Z,13.70
2023-02-17T12:38:28.736Z,11.77
2023-02-17T12:41:37.245Z,12.40
2023-02-17T12:44:45.137Z,11.43
2023-02-17T12:47:55.203Z,10.87
2023-02-17T12:51:05.574Z,12.10
2023-02-17T12:54:16.032Z,10.03
2023-02-17T12:57:23.421Z,10.27
2023-02-17T13:00:34.473Z,9.97
2023-02-17T13:03:37.879Z,9.97
2023-02-17T13:06:46.114Z,9.53
2023-02-17T13:09:51.696Z,9.50
2023-02-17T13:13:01.042Z,9.33
2023-02-17T13:16:06.962Z,9.13
2023-02-17T13:19:10.038Z,8.17
2023-02-17T13:22:24.103Z,8.07
2023-02-17T13:25:35.053Z,7.00
2023-02-17T13:28:42.476Z,7.17
2023-02-17T13:31:48.098Z,6.60
2023-02-17T13:35:02.081Z,7.20
2023-02-17T13:38:05.003Z,6.33
2023-02-17T13:41:08.947Z,6.10
2023-02-17T13:44:26.862Z,6.63
2023-02-17T13:47:31.847Z,7.70
2023-02-17T13:50:36.741Z,6.50
2023-02-17T13:53:41.834Z,7.73
2023-02-17T13:56:51.588Z,6.90
2023-02-17T13:59:54.597Z,7.17
2023-02-17T14:02:58.845Z,7.43
2023-02-17T14:06:03.054Z,7.53
2023-02-17T14:09:13.687Z,7.30
2023-02-17T14:12:24.412Z,7.00
2023-02-17T14:15:29.650Z,6.97
2023-02-17T14:18:35.381Z,7.27
2023-02-17T14:21:39.732Z,7.07
2023-02-17T14:24:42.326Z,6.73
2023-02-17T14:27:47.874Z,7.13
2023-02-17T14:30:51.434Z,6.63
2023-02-17T14:33:59.098Z,6.73
2023-02-17T14:37:09.304Z,6.00
2023-02-17T14:40:17.670Z,5.93
2023-02-17T14:43:21.603Z,6.43
2023-02-17T14:46:24.630Z,5.73
2023-02-17T14:49:27.423Z,5.87
2023-02-17T14:52:30.285Z,5.00
2023-02-17T14:55:36.185Z,5.10
2023-02-17T14:58:40.196Z,5.03
2023-02-17T15:01:42.822Z,4.00
2023-02-17T15:04:45.626Z,3.50
2023-02-17T15:07:49.433Z,3.23
2023-02-17T15:10:52.252Z,2.80
2023-02-17T15:13:56.202Z,2.93
2023-02-17T15:16:58.815Z,2.77
2023-02-17T15:20:01.409Z,3.13
2023-02-17T15:23:03.984Z,2.93
2023-02-17T15:26:09.436Z,3.20
2023-02-17T15:29:18.268Z,2.80
2023-02-17T15:32:20.930Z,3.20
2023-02-17T15:35:26.094Z,2.53
2023-02-17T15:38:28.809Z,2.77
2023-02-17T15:41:31.809Z,3.23
2023-02-17T15:44:43.154Z,2.83
2023-02-17T15:47:46.496Z,3.20
2023-02-17T15:50:49.108Z,4.10
2023-02-17T15:53:52.390Z,3.83
2023-02-17T15:56:55.048Z,3.63
2023-02-17T15:59:59.076Z,3.50
2023-02-17T16:03:01.802Z,4.00
2023-02-17T16:06:04.680Z,4.60
2023-02-17T16:09:07.919Z,3.83
2023-02-17T16:12:17.150Z,3.80
2023-02-17T16:15:24.018Z,3.50
2023-02-17T16:18:26.659Z,4.57
2023-02-17T16:21:29.714Z,3.73
2023-02-17T16:24:32.543Z,4.20
2023-02-17T16:27:35.234Z,4.43
2023-02-17T16:30:39.293Z,4.70
2023-02-17T16:33:41.913Z,3.37
2023-02-17T16:36:44.859Z,4.07
2023-02-17T16:39:47.573Z,3.83
2023-02-17T16:42:50.278Z,4.40
2023-02-17T16:45:56.965Z,4.03
2023-02-17T16:49:00.913Z,4.57
2023-02-17T16:52:06.334Z,4.20
2023-02-17T16:55:09.143Z,4.13
2023-02-17T16:58:15.745Z,4.30
2023-02-17T17:01:19.798Z,4.50
2023-02-17T17:04:22.745Z,4.10
2023-02-17T17:07:25.353Z,4.53
2023-02-17T17:10:30.538Z,3.63
2023-02-17T17:13:33.112Z,4.50
2023-02-17T17:16:37.943Z,3.97
2023-02-17T17:19:40.592Z,5.53
2023-02-17T17:22:43.321Z,3.67
2023-02-17T17:25:47.103Z,4.03
2023-02-17T17:28:50.209Z,3.70
2023-02-17T17:31:54.311Z,4.40
2023-02-17T17:34:56.907Z,3.40
2023-02-17T17:37:59.698Z,4.77
2023-02-17T17:41:02.275Z,3.33
2023-02-17T17:44:04.980Z,4.13
2023-02-17T17:47:21.300Z,4.67
2023-02-17T17:50:30.928Z,4.13
2023-02-17T17:53:33.576Z,4.73
2023-02-17T17:56:38.785Z,4.00
2023-02-17T17:59:41.393Z,4.47
2023-02-17T18:02:45.332Z,4.20
2023-02-17T18:05:48.563Z,4.07
2023-02-17T18:08:52.285Z,5.10
2023-02-17T18:11:56.983Z,3.50
2023-02-17T18:15:02.609Z,4.50
2023-02-17T18:18:06.893Z,4.40
2023-02-17T18:21:09.481Z,3.80
2023-02-17T18:24:12.109Z,4.47
2023-02-17T18:27:14.895Z,4.00
2023-02-17T18:30:19.819Z,4.00
2023-02-17T18:33:23.864Z,3.93
2023-02-17T18:36:27.593Z,4.30
2023-02-17T18:39:30.285Z,3.83
2023-02-17T18:42:33.951Z,4.03
2023-02-17T18:45:37.122Z,4.80
2023-02-17T18:48:41.139Z,4.20
2023-02-17T18:51:43.737Z,4.27
2023-02-17T18:54:46.992Z,4.07
2023-02-17T18:57:49.585Z,4.50
2023-02-17T19:00:52.191Z,3.77
2023-02-17T19:03:56.440Z,3.70
2023-02-17T19:07:03.094Z,3.97
2023-02-17T19:10:06.980Z,4.30
2023-02-17T19:13:09.633Z,4.43
2023-02-17T19:16:15.266Z,4.60
2023-02-17T19:19:19.285Z,4.67
2023-02-17T19:22:21.987Z,5.10
2023-02-17T19:25:25.099Z,4.77
2023-02-17T19:28:27.779Z,4.13
2023-02-17T19:31:31.565Z,4.57
2023-02-17T19:34:35.693Z,3.90
2023-02-17T19:37:38.313Z,4.40
2023-02-17T19:40:41.123Z,4.10
2023-02-17T19:43:44.674Z,4.07
2023-02-17T19:46:47.352Z,4.53
2023-02-17T19:49:51.324Z,4.53
2023-02-17T19:52:53.873Z,4.80
2023-02-17T19:55:56.455Z,4.50
2023-02-17T19:58:59.495Z,4.80
2023-02-17T20:02:02.131Z,5.20
2023-02-17T20:05:06.687Z,4.60
2023-02-17T20:08:09.342Z,5.03
2023-02-17T20:11:12.980Z,4.60
2023-02-17T20:14:15.906Z,4.50
2023-02-17T20:17:18.530Z,4.40
2023-02-17T20:20:22.611Z,4.13
2023-02-17T20:23:25.215Z,5.37
2023-02-17T20:26:31.391Z,4.57
2023-02-17T20:29:35.335Z,4.70
2023-02-17T20:32:37.945Z,4.07
2023-02-17T20:35:41.880Z,3.87
2023-02-17T20:38:44.932Z,4.40
2023-02-17T20:41:47.615Z,4.50
2023-02-17T20:44:50.986Z,4.73
2023-02-17T20:47:53.627Z,4.60
2023-02-17T20:50:58.914Z,5.10
2023-02-17T20:54:01.588Z,4.70
2023-02-17T20:57:04.825Z,4.77
2023-02-17T21:00:09.555Z,5.17
2023-02-17T21:03:12.177Z,4.60
2023-02-17T21:06:21.663Z,3.93
2023-02-17T21:09:24.465Z,4.57
2023-02-17T21:12:27.074Z,5.17
2023-02-17T21:15:29.779Z,4.17
2023-02-17T21:18:32.392Z,4.50
2023-02-17T21:21:36.595Z,4.10
2023-02-17T21:24:39.240Z,3.90
2023-02-17T21:27:41.850Z,4.10
2023-02-17T21:30:46.915Z,3.57
2023-02-17T21:33:49.682Z,4.17
2023-02-17T21:36:53.615Z,4.37
2023-02-17T21:39:56.215Z,4.63
2023-02-17T21:43:16.337Z,4.30
2023-02-17T21:46:20.084Z,4.70
2023-02-17T21:49:23.304Z,3.67
2023-02-17T21:52:27.297Z,4.00
2023-02-17T21:55:29.879Z,4.20
2023-02-17T21:58:33.080Z,4.53
2023-02-17T22:01:36.102Z,5.10
2023-02-17T22:04:38.736Z,5.23
2023-02-17T22:07:42.676Z,5.77
2023-02-17T22:10:45.711Z,4.33
2023-02-17T22:13:48.865Z,4.57
2023-02-17T22:16:51.592Z,5.30
2023-02-17T22:19:54.169Z,5.30
2023-02-17T22:22:58.139Z,4.27
2023-02-17T22:26:00.768Z,5.07
2023-02-17T22:29:03.507Z,3.80
2023-02-17T22:32:06.243Z,4.93
2023-02-17T22:35:09.459Z,4.13
2023-02-17T22:38:13.408Z,4.20
2023-02-17T22:41:18.539Z,4.67
2023-02-17T22:44:21.182Z,3.90
2023-02-17T22:47:23.853Z,4.07
2023-02-17T22:50:26.442Z,4.10
2023-02-17T22:53:30.424Z,4.27
2023-02-17T22:56:33.069Z,4.50
2023-02-17T22:59:35.688Z,3.80
2023-02-17T23:02:38.314Z,4.93
2023-02-17T23:05:42.156Z,4.00
2023-02-17T23:08:46.941Z,3.97
2023-02-17T23:11:53.926Z,3.27
2023-02-17T23:14:56.840Z,3.80
2023-02-17T23:17:59.424Z,4.13
2023-02-17T23:21:08.775Z,4.37
2023-02-17T23:24:13.123Z,3.70
2023-02-17T23:27:16.285Z,3.70
2023-02-17T23:30:21.364Z,3.77
2023-02-17T23:33:24.809Z,3.80
2023-02-17T23:36:27.556Z,3.90
2023-02-17T23:39:31.503Z,3.83
2023-02-17T23:42:34.092Z,4.23
2023-02-17T23:45:38.985Z,4.07
2023-02-17T23:48:41.553Z,4.60
2023-02-17T23:51:46.152Z,4.27
2023-02-17T23:54:50.145Z,3.43
2023-02-17T23:57:52.718Z,4.10
